AirNav   Bose Proflight Series 2 Wireless Aviation Headset
 
 646 users online  

CL97 Scripps Mercy Hospital Heliport
San Diego, California, USA

GOING TO SAN DIEGO?


FAA INFORMATION EFFECTIVE 07 NOVEMBER 2019

Location

FAA Identifier: CL97
Lat/Long: 32-45-04.5000N 117-09-38.1300W
32-45.075000N 117-09.635500W
32.7512500,-117.1605917
(estimated)
Elevation: 330 ft. / 101 m (estimated)
Variation: 13E (1985)
Time zone: UTC -8 (UTC -7 during Daylight Saving Time)
Zip code: 92103

Heliport Operations

Heliport use: Private use, MEDICAL.
Activation date: 09/1987
Control tower: no
ARTCC: LOS ANGELES CENTER
FSS: SAN DIEGO FLIGHT SERVICE STATION
Attendance: CONTINUOUS
Wind indicator: lighted
Segmented circle: no
Lights: PHONE REQ; FOR PERI & FLOOD LGTS CALL 619-260-7272

Heliport Communications

WX ASOS at SAN (1.8 nm SW): PHONE 619-296-8934
WX ASOS at MYF (4 nm N): 126.9 (858-576-4337)
WX AWOS-3P at SEE (11 nm NE): 125.45 (619-449-1228)
WX ASOS at NRS (11 nm S): PHONE 619-437-9890
WX ASOS at SDM (14 nm SE): 132.35 (619-661-8297)

Nearby radio navigation aids

VOR radial/distance  VOR name  Freq  Var
MZBr105/3.8MISSION BAY VORTAC117.8015E
PGYr299/12.5POGGI VORTAC116.4514E
TIJr306/16.4TIJUANA VOR/DME116.5014E
OCNr141/32.1OCEANSIDE VORTAC115.3015E
JLIr216/37.2JULIAN VORTAC114.0015E

Heliport Services

Runway Information

Helipad H1

Dimensions: 40 x 40 ft. / 12 x 12 m
Surface: mats
ROOFTOP, 9,000 LB MAX
Runway edge lights: PERI
AND FLOOD LGTS.
Latitude: 32-45.075000N
Longitude: 117-09.635500W
Elevation: 330.0 ft.
Traffic pattern: leftleft

Heliport Ownership and Management from official FAA records

Ownership: Privately-owned
Owner: SCRIPPS HEALTH
4077 5TH AVE
SAN DIEGO, CA 92103
Phone (619) 294-8111
Manager: DANIEL GOYCOCHEA
4077 5TH AVE, MER 22
SAN DIEGO, CA 92103
Phone (619) 260-7358
SUPERVISING ENGINEER

Additional Remarks

FOR CD CTC LOS ANGELES ARTCC AT 661-575-2079.

Instrument Procedures

There are no published instrument procedures at CL97.

Some nearby airports with instrument procedures:

KSAN - San Diego International Airport (2 nm SW)
KMYF - Montgomery-Gibbs Executive Airport (4 nm N)
KNZY - North Island Naval Air Station (Halsey Field) (4 nm SW)
KNKX - Miramar MCAS (Joe Foss Field) Airport (7 nm N)
KSEE - Gillespie Field Airport (11 nm NE)
KNRS - Imperial Beach Naval Outlying Field (Ream Field) (11 nm S)
KSDM - Brown Field Municipal Airport (14 nm SE)
 
Loc | Ops | Rwys | IFR | FBO | Links
Com | Nav | Svcs | Stats | Notes
Area around CL97 (Scripps Mercy Hospital Heliport)
 
Road maps at: MapQuest Bing Google
 
Aerial photo
No photo
 
Sectional chart

 
Airport distance calculator
Flying to Scripps Mercy Hospital Heliport? Find the distance to fly.

From to CL97

Sunrise and sunset
Times for 18-Nov-2019
 Local
(UTC-8)
 Zulu
(UTC)
Morning civil twilight05:5613:56
Sunrise06:2314:23
Sunset16:4500:45
Evening civil twilight17:1101:11

Current date and time
Zulu (UTC)  19-Nov-2019 05:08:49
Local (UTC-8)  18-Nov-2019 21:08:49
 
METAR
KSAN 
2nm SW 
190451Z 09004KT 10SM SCT250 21/12 A2986 RMK AO2 SLP112 T02060117
KMYF 
4nm N 
190453Z 00000KT 10SM CLR 18/08 A2986 RMK AO2 SLP108 T01830083
KNZY 
4nm SW 
190452Z 00000KT 10SM SCT250 18/13 A2984 RMK AO2 SLP105 T01830133
KNKX 
7nm N 
190455Z 08007KT 10SM CLR 17/05 A2986 RMK AO2 SLP104 T01670050 $
KSEE 
11nm E 
190447Z 00000KT 10SM SKC 17/05 A2987
KNRS 
11nm S 
190456Z 18004KT 10SM FEW250 21/09 A2985 RMK AO2 SLP108 T02060089 $
KSDM 
13nm SE 
190453Z AUTO 08007KT 10SM CLR 18/05 A2986 RMK AO2 SLP105 T01780050
MMTJ 
16nm SE 
190444Z 07004KT 8SM SCT200 19/07 A2989 RMK 8/008 HZY
TAF
KSAN 
2nm SW 
190307Z 1903/2006 15006KT P6SM SCT250 FM192000 22008KT P6SM FEW010 BKN100 FM200300 22011KT P6SM VCSH SCT015 BKN025
KNZY 
4nm SW 
1823/1923 VRB06KT 9999 FEW120 BKN250 QNH2977INS TEMPO 1823/1902 30008KT BECMG 1912/1914 VRB06KT 9999 SCT100 QNH2975INS FM192000 20007KT 9999 SCT090 BKN250 QNH2967INS T15/1912Z T21/1921Z FS30107
KNKX 
7nm N 
1903/2003 VRB06KT 9999 SKC QNH2977INS BECMG 1915/1917 23009KT 9999 SCT120 QNH2970INS FM192230 22008KT 9999 VCSH SCT025 BKN045 QNH2966INS TEMPO 2000/2003 2800 BR SHRA BKN020 OVC035 T13/1910Z T25/1921Z
NOTAMs
Click for the latest NOTAMs
NOTAMs are issued by the DoD/FAA and will open in a separate window not controlled by AirNav.

 

 
 

Would you like to see your business listed on this page?

 If your business provides an interesting product or service to pilots, flight crews, aircraft, or users of the Scripps Mercy Hospital Heliport, you should consider listing it here.  To start the listing process, click on the button below
 
Add a business
 

Other Pages about Scripps Mercy Hospital Heliport

Update a link
 
Copyright © AirNav, LLC. All rights reserved. Privacy Policy  Contact